sensor_id;sensor_type;location;lat;lon;timestamp;temperature;humidity
3550;DHT22;45572;48.804;8.330;2023-04-24T00:00:47;13.40;81.30
3550;DHT22;45572;48.804;8.330;2023-04-24T00:03:15;13.40;81.40
3550;DHT22;45572;48.804;8.330;2023-04-24T00:05:44;13.40;81.40
3550;DHT22;45572;48.804;8.330;2023-04-24T00:08:13;13.40;81.80
3550;DHT22;45572;48.804;8.330;2023-04-24T00:10:41;13.40;81.70
3550;DHT22;45572;48.804;8.330;2023-04-24T00:13:09;13.40;81.50
3550;DHT22;45572;48.804;8.330;2023-04-24T00:15:36;13.40;81.80
3550;DHT22;45572;48.804;8.330;2023-04-24T00:18:04;13.40;81.90
3550;DHT22;45572;48.804;8.330;2023-04-24T00:20:32;13.40;81.50
3550;DHT22;45572;48.804;8.330;2023-04-24T00:23:03;13.50;81.70
3550;DHT22;45572;48.804;8.330;2023-04-24T00:25:31;13.50;81.30
3550;DHT22;45572;48.804;8.330;2023-04-24T00:27:58;13.50;80.70
3550;DHT22;45572;48.804;8.330;2023-04-24T00:30:26;13.60;81.20
3550;DHT22;45572;48.804;8.330;2023-04-24T00:32:54;13.60;80.40
3550;DHT22;45572;48.804;8.330;2023-04-24T00:35:23;13.60;80.90
3550;DHT22;45572;48.804;8.330;2023-04-24T00:37:51;13.60;81.00
3550;DHT22;45572;48.804;8.330;2023-04-24T00:40:20;13.60;81.10
3550;DHT22;45572;48.804;8.330;2023-04-24T00:42:48;13.60;80.70
3550;DHT22;45572;48.804;8.330;2023-04-24T00:45:16;13.60;80.70
3550;DHT22;45572;48.804;8.330;2023-04-24T00:47:45;13.60;80.80
3550;DHT22;45572;48.804;8.330;2023-04-24T00:50:15;13.60;81.20
3550;DHT22;45572;48.804;8.330;2023-04-24T00:52:43;13.60;81.30
3550;DHT22;45572;48.804;8.330;2023-04-24T00:55:11;13.60;81.50
3550;DHT22;45572;48.804;8.330;2023-04-24T00:57:40;13.60;81.00
3550;DHT22;45572;48.804;8.330;2023-04-24T01:00:09;13.60;81.00
3550;DHT22;45572;48.804;8.330;2023-04-24T01:02:39;13.50;81.10
3550;DHT22;45572;48.804;8.330;2023-04-24T01:05:10;13.50;80.90
3550;DHT22;45572;48.804;8.330;2023-04-24T01:07:41;13.50;81.20
3550;DHT22;45572;48.804;8.330;2023-04-24T01:10:11;13.50;81.70
3550;DHT22;45572;48.804;8.330;2023-04-24T01:12:40;13.50;81.60
3550;DHT22;45572;48.804;8.330;2023-04-24T01:15:11;13.40;81.60
3550;DHT22;45572;48.804;8.330;2023-04-24T01:17:41;13.40;81.70
3550;DHT22;45572;48.804;8.330;2023-04-24T01:20:09;13.40;82.10
3550;DHT22;45572;48.804;8.330;2023-04-24T01:22:39;13.30;82.10
3550;DHT22;45572;48.804;8.330;2023-04-24T01:25:08;13.30;82.80
3550;DHT22;45572;48.804;8.330;2023-04-24T01:27:36;13.40;82.60
3550;DHT22;45572;48.804;8.330;2023-04-24T01:30:05;13.30;82.10
3550;DHT22;45572;48.804;8.330;2023-04-24T01:32:33;13.30;81.90
3550;DHT22;45572;48.804;8.330;2023-04-24T01:35:02;13.30;82.40
3550;DHT22;45572;48.804;8.330;2023-04-24T01:37:30;13.30;83.50
3550;DHT22;45572;48.804;8.330;2023-04-24T01:40:00;13.30;84.50
3550;DHT22;45572;48.804;8.330;2023-04-24T01:42:29;13.20;84.80
3550;DHT22;45572;48.804;8.330;2023-04-24T01:44:57;13.20;84.80
3550;DHT22;45572;48.804;8.330;2023-04-24T01:47:26;13.10;85.50
3550;DHT22;45572;48.804;8.330;2023-04-24T01:49:53;13.10;85.80
3550;DHT22;45572;48.804;8.330;2023-04-24T01:52:21;13.00;86.60
3550;DHT22;45572;48.804;8.330;2023-04-24T01:54:49;12.90;86.40
3550;DHT22;45572;48.804;8.330;2023-04-24T01:57:18;12.90;86.60
3550;DHT22;45572;48.804;8.330;2023-04-24T01:59:46;12.80;86.80
3550;DHT22;45572;48.804;8.330;2023-04-24T02:02:14;12.90;86.90
3550;DHT22;45572;48.804;8.330;2023-04-24T02:04:42;12.90;86.80
3550;DHT22;45572;48.804;8.330;2023-04-24T02:07:10;12.80;87.10
3550;DHT22;45572;48.804;8.330;2023-04-24T02:09:37;12.80;87.80
3550;DHT22;45572;48.804;8.330;2023-04-24T02:12:06;12.80;87.50
3550;DHT22;45572;48.804;8.330;2023-04-24T02:14:35;12.70;87.50
3550;DHT22;45572;48.804;8.330;2023-04-24T02:17:02;12.60;87.80
3550;DHT22;45572;48.804;8.330;2023-04-24T02:19:31;12.60;87.90
3550;DHT22;45572;48.804;8.330;2023-04-24T02:21:59;12.60;87.50
3550;DHT22;45572;48.804;8.330;2023-04-24T02:24:30;12.50;87.80
3550;DHT22;45572;48.804;8.330;2023-04-24T02:26:58;12.50;87.60
3550;DHT22;45572;48.804;8.330;2023-04-24T02:29:26;12.50;87.80
3550;DHT22;45572;48.804;8.330;2023-04-24T02:31:56;12.50;86.90
3550;DHT22;45572;48.804;8.330;2023-04-24T02:34:23;12.60;87.00
3550;DHT22;45572;48.804;8.330;2023-04-24T02:37:06;12.60;87.00
3550;DHT22;45572;48.804;8.330;2023-04-24T02:39:35;12.60;87.10
3550;DHT22;45572;48.804;8.330;2023-04-24T02:42:03;12.60;87.00
3550;DHT22;45572;48.804;8.330;2023-04-24T02:44:31;12.70;86.40
3550;DHT22;45572;48.804;8.330;2023-04-24T02:47:00;12.70;86.30
3550;DHT22;45572;48.804;8.330;2023-04-24T02:49:30;12.80;86.70
3550;DHT22;45572;48.804;8.330;2023-04-24T02:51:57;12.80;86.40
3550;DHT22;45572;48.804;8.330;2023-04-24T02:54:25;12.80;86.10
3550;DHT22;45572;48.804;8.330;2023-04-24T02:56:53;12.90;86.50
3550;DHT22;45572;48.804;8.330;2023-04-24T02:59:21;13.00;86.30
3550;DHT22;45572;48.804;8.330;2023-04-24T03:01:49;13.00;87.20
3550;DHT22;45572;48.804;8.330;2023-04-24T03:04:18;12.90;87.80
3550;DHT22;45572;48.804;8.330;2023-04-24T03:06:47;12.90;89.80
3550;DHT22;45572;48.804;8.330;2023-04-24T03:09:15;12.90;90.30
3550;DHT22;45572;48.804;8.330;2023-04-24T03:11:43;13.00;90.80
3550;DHT22;45572;48.804;8.330;2023-04-24T03:14:10;13.00;91.10
3550;DHT22;45572;48.804;8.330;2023-04-24T03:16:38;12.80;92.60
3550;DHT22;45572;48.804;8.330;2023-04-24T03:19:06;12.20;93.00
3550;DHT22;45572;48.804;8.330;2023-04-24T03:21:44;11.70;92.00
3550;DHT22;45572;48.804;8.330;2023-04-24T03:24:11;11.30;92.70
3550;DHT22;45572;48.804;8.330;2023-04-24T03:26:40;11.00;93.40
3550;DHT22;45572;48.804;8.330;2023-04-24T03:29:28;10.80;93.90
3550;DHT22;45572;48.804;8.330;2023-04-24T03:31:57;10.60;94.70
3550;DHT22;45572;48.804;8.330;2023-04-24T03:34:25;10.50;95.30
3550;DHT22;45572;48.804;8.330;2023-04-24T03:36:55;10.40;95.80
3550;DHT22;45572;48.804;8.330;2023-04-24T03:39:23;10.40;96.20
3550;DHT22;45572;48.804;8.330;2023-04-24T03:41:54;10.50;96.70
3550;DHT22;45572;48.804;8.330;2023-04-24T03:44:29;10.40;96.50
3550;DHT22;45572;48.804;8.330;2023-04-24T03:46:57;10.50;96.70
3550;DHT22;45572;48.804;8.330;2023-04-24T03:49:28;10.40;96.60
3550;DHT22;45572;48.804;8.330;2023-04-24T03:51:58;10.50;96.60
3550;DHT22;45572;48.804;8.330;2023-04-24T03:54:27;10.50;96.40
3550;DHT22;45572;48.804;8.330;2023-04-24T03:56:55;10.60;96.80
3550;DHT22;45572;48.804;8.330;2023-04-24T03:59:25;10.70;96.80
3550;DHT22;45572;48.804;8.330;2023-04-24T04:02:08;10.70;96.70
3550;DHT22;45572;48.804;8.330;2023-04-24T04:04:36;10.60;96.20
3550;DHT22;45572;48.804;8.330;2023-04-24T04:07:06;10.60;96.10
3550;DHT22;45572;48.804;8.330;2023-04-24T04:09:34;10.70;96.20
3550;DHT22;45572;48.804;8.330;2023-04-24T04:12:02;10.90;96.50
3550;DHT22;45572;48.804;8.330;2023-04-24T04:14:31;10.90;96.00
3550;DHT22;45572;48.804;8.330;2023-04-24T04:16:59;11.00;96.10
3550;DHT22;45572;48.804;8.330;2023-04-24T04:19:27;10.90;95.30
3550;DHT22;45572;48.804;8.330;2023-04-24T04:21:55;10.90;95.20
3550;DHT22;45572;48.804;8.330;2023-04-24T04:24:35;11.00;95.20
3550;DHT22;45572;48.804;8.330;2023-04-24T04:27:05;10.90;95.10
3550;DHT22;45572;48.804;8.330;2023-04-24T04:29:40;10.80;95.30
3550;DHT22;45572;48.804;8.330;2023-04-24T04:32:11;10.80;95.70
3550;DHT22;45572;48.804;8.330;2023-04-24T04:34:39;10.70;95.70
3550;DHT22;45572;48.804;8.330;2023-04-24T04:37:11;10.70;95.80
3550;DHT22;45572;48.804;8.330;2023-04-24T04:39:54;10.60;95.80
3550;DHT22;45572;48.804;8.330;2023-04-24T04:42:25;10.60;95.90
3550;DHT22;45572;48.804;8.330;2023-04-24T04:44:53;10.50;96.00
3550;DHT22;45572;48.804;8.330;2023-04-24T04:47:29;10.40;95.80
3550;DHT22;45572;48.804;8.330;2023-04-24T04:49:59;10.30;96.10
3550;DHT22;45572;48.804;8.330;2023-04-24T04:52:27;10.30;96.40
3550;DHT22;45572;48.804;8.330;2023-04-24T04:55:09;10.30;96.70
3550;DHT22;45572;48.804;8.330;2023-04-24T04:57:57;10.30;96.50
3550;DHT22;45572;48.804;8.330;2023-04-24T05:00:27;10.30;96.10
3550;DHT22;45572;48.804;8.330;2023-04-24T05:02:55;10.30;96.40
3550;DHT22;45572;48.804;8.330;2023-04-24T05:05:43;10.30;96.20
3550;DHT22;45572;48.804;8.330;2023-04-24T05:08:13;10.30;95.90
3550;DHT22;45572;48.804;8.330;2023-04-24T05:10:54;10.40;95.90
3550;DHT22;45572;48.804;8.330;2023-04-24T05:13:24;10.40;95.50
3550;DHT22;45572;48.804;8.330;2023-04-24T05:16:10;10.50;95.70
3550;DHT22;45572;48.804;8.330;2023-04-24T05:18:39;10.70;95.50
3550;DHT22;45572;48.804;8.330;2023-04-24T05:21:09;10.80;95.10
3550;DHT22;45572;48.804;8.330;2023-04-24T05:23:40;10.90;94.70
3550;DHT22;45572;48.804;8.330;2023-04-24T05:26:11;10.90;94.40
3550;DHT22;45572;48.804;8.330;2023-04-24T05:28:42;11.00;94.10
3550;DHT22;45572;48.804;8.330;2023-04-24T05:31:14;11.00;93.20
3550;DHT22;45572;48.804;8.330;2023-04-24T05:33:44;11.00;92.90
3550;DHT22;45572;48.804;8.330;2023-04-24T05:36:12;11.00;93.20
3550;DHT22;45572;48.804;8.330;2023-04-24T05:38:42;11.00;92.80
3550;DHT22;45572;48.804;8.330;2023-04-24T05:41:12;11.00;93.20
3550;DHT22;45572;48.804;8.330;2023-04-24T05:43:41;11.00;92.70
3550;DHT22;45572;48.804;8.330;2023-04-24T05:46:11;11.00;93.00
3550;DHT22;45572;48.804;8.330;2023-04-24T05:48:39;11.10;93.40
3550;DHT22;45572;48.804;8.330;2023-04-24T05:51:09;11.20;93.10
3550;DHT22;45572;48.804;8.330;2023-04-24T05:53:39;11.30;93.10
3550;DHT22;45572;48.804;8.330;2023-04-24T05:56:10;11.40;93.00
3550;DHT22;45572;48.804;8.330;2023-04-24T05:58:41;11.40;92.90
3550;DHT22;45572;48.804;8.330;2023-04-24T06:01:13;11.60;93.30
3550;DHT22;45572;48.804;8.330;2023-04-24T06:03:44;11.70;93.30
3550;DHT22;45572;48.804;8.330;2023-04-24T06:06:12;11.80;92.90
3550;DHT22;45572;48.804;8.330;2023-04-24T06:08:40;11.80;92.40
3550;DHT22;45572;48.804;8.330;2023-04-24T06:11:09;11.70;91.00
3550;DHT22;45572;48.804;8.330;2023-04-24T06:13:38;11.60;91.00
3550;DHT22;45572;48.804;8.330;2023-04-24T06:16:27;11.70;91.40
3550;DHT22;45572;48.804;8.330;2023-04-24T06:19:01;11.60;91.50
3550;DHT22;45572;48.804;8.330;2023-04-24T06:21:29;11.70;91.20
3550;DHT22;45572;48.804;8.330;2023-04-24T06:23:58;11.60;90.30
3550;DHT22;45572;48.804;8.330;2023-04-24T06:26:25;11.60;90.00
3550;DHT22;45572;48.804;8.330;2023-04-24T06:28:56;11.60;90.30
3550;DHT22;45572;48.804;8.330;2023-04-24T06:31:27;11.50;91.10
3550;DHT22;45572;48.804;8.330;2023-04-24T06:33:59;11.40;91.40
3550;DHT22;45572;48.804;8.330;2023-04-24T06:36:30;11.40;91.50
3550;DHT22;45572;48.804;8.330;2023-04-24T06:39:01;11.40;91.10
3550;DHT22;45572;48.804;8.330;2023-04-24T06:41:29;11.40;90.10
3550;DHT22;45572;48.804;8.330;2023-04-24T06:43:59;11.30;90.80
3550;DHT22;45572;48.804;8.330;2023-04-24T06:46:29;11.20;89.70
3550;DHT22;45572;48.804;8.330;2023-04-24T06:48:57;11.20;89.90
3550;DHT22;45572;48.804;8.330;2023-04-24T06:51:26;11.20;90.10
3550;DHT22;45572;48.804;8.330;2023-04-24T06:53:54;11.30;90.00
3550;DHT22;45572;48.804;8.330;2023-04-24T06:56:22;11.30;89.60
3550;DHT22;45572;48.804;8.330;2023-04-24T06:58:50;11.30;89.70
3550;DHT22;45572;48.804;8.330;2023-04-24T07:01:18;11.30;89.70
3550;DHT22;45572;48.804;8.330;2023-04-24T07:03:49;11.30;88.70
3550;DHT22;45572;48.804;8.330;2023-04-24T07:06:18;11.30;88.00
3550;DHT22;45572;48.804;8.330;2023-04-24T07:08:49;11.40;88.60
3550;DHT22;45572;48.804;8.330;2023-04-24T07:11:17;11.50;88.50
3550;DHT22;45572;48.804;8.330;2023-04-24T07:13:44;11.50;86.90
3550;DHT22;45572;48.804;8.330;2023-04-24T07:16:12;11.40;86.20
3550;DHT22;45572;48.804;8.330;2023-04-24T07:18:41;11.40;86.80
3550;DHT22;45572;48.804;8.330;2023-04-24T07:21:10;11.40;86.60
3550;DHT22;45572;48.804;8.330;2023-04-24T07:23:39;11.50;85.60
3550;DHT22;45572;48.804;8.330;2023-04-24T07:26:12;11.80;85.30
3550;DHT22;45572;48.804;8.330;2023-04-24T07:28:44;12.00;84.20
3550;DHT22;45572;48.804;8.330;2023-04-24T07:31:12;12.30;85.30
3550;DHT22;45572;48.804;8.330;2023-04-24T07:33:40;13.00;84.20
3550;DHT22;45572;48.804;8.330;2023-04-24T07:36:08;13.30;81.60
3550;DHT22;45572;48.804;8.330;2023-04-24T07:38:43;13.00;81.70
3550;DHT22;45572;48.804;8.330;2023-04-24T07:41:11;13.50;80.90
3550;DHT22;45572;48.804;8.330;2023-04-24T07:43:40;14.20;78.50
3550;DHT22;45572;48.804;8.330;2023-04-24T07:46:14;14.60;76.30
3550;DHT22;45572;48.804;8.330;2023-04-24T07:48:42;15.50;71.40
3550;DHT22;45572;48.804;8.330;2023-04-24T07:51:12;15.30;71.10
3550;DHT22;45572;48.804;8.330;2023-04-24T07:53:39;16.00;68.40
3550;DHT22;45572;48.804;8.330;2023-04-24T07:56:11;17.10;69.10
3550;DHT22;45572;48.804;8.330;2023-04-24T07:58:42;17.40;63.70
3550;DHT22;45572;48.804;8.330;2023-04-24T08:01:09;17.30;62.30
3550;DHT22;45572;48.804;8.330;2023-04-24T08:03:40;17.20;61.90
3550;DHT22;45572;48.804;8.330;2023-04-24T08:06:08;15.80;62.70
3550;DHT22;45572;48.804;8.330;2023-04-24T08:08:38;15.00;65.50
3550;DHT22;45572;48.804;8.330;2023-04-24T08:11:05;14.50;67.60
3550;DHT22;45572;48.804;8.330;2023-04-24T08:13:39;14.00;68.00
3550;DHT22;45572;48.804;8.330;2023-04-24T08:16:10;13.70;68.90
3550;DHT22;45572;48.804;8.330;2023-04-24T08:18:38;13.20;70.30
3550;DHT22;45572;48.804;8.330;2023-04-24T08:21:08;13.10;70.50
3550;DHT22;45572;48.804;8.330;2023-04-24T08:23:37;12.80;72.10
3550;DHT22;45572;48.804;8.330;2023-04-24T08:26:05;12.80;73.20
3550;DHT22;45572;48.804;8.330;2023-04-24T08:28:35;12.90;73.20
3550;DHT22;45572;48.804;8.330;2023-04-24T08:31:05;13.00;72.10
3550;DHT22;45572;48.804;8.330;2023-04-24T08:33:36;12.80;73.00
3550;DHT22;45572;48.804;8.330;2023-04-24T08:36:05;13.20;74.70
3550;DHT22;45572;48.804;8.330;2023-04-24T08:38:34;13.30;72.70
3550;DHT22;45572;48.804;8.330;2023-04-24T08:41:03;13.30;71.80
3550;DHT22;45572;48.804;8.330;2023-04-24T08:43:33;13.30;72.60
3550;DHT22;45572;48.804;8.330;2023-04-24T08:46:06;13.20;72.50
3550;DHT22;45572;48.804;8.330;2023-04-24T08:48:38;13.20;71.40
3550;DHT22;45572;48.804;8.330;2023-04-24T08:51:08;13.10;73.60
3550;DHT22;45572;48.804;8.330;2023-04-24T08:53:37;13.00;73.20
3550;DHT22;45572;48.804;8.330;2023-04-24T08:56:05;13.10;72.90
3550;DHT22;45572;48.804;8.330;2023-04-24T08:58:34;13.10;72.60
3550;DHT22;45572;48.804;8.330;2023-04-24T09:01:02;13.10;72.80
3550;DHT22;45572;48.804;8.330;2023-04-24T09:03:33;12.80;72.50
3550;DHT22;45572;48.804;8.330;2023-04-24T09:06:02;12.90;73.50
3550;DHT22;45572;48.804;8.330;2023-04-24T09:08:31;12.90;72.90
3550;DHT22;45572;48.804;8.330;2023-04-24T09:11:00;12.90;72.10
3550;DHT22;45572;48.804;8.330;2023-04-24T09:13:30;13.10;71.50
3550;DHT22;45572;48.804;8.330;2023-04-24T09:15:58;13.40;72.20
3550;DHT22;45572;48.804;8.330;2023-04-24T09:18:27;13.90;70.60
3550;DHT22;45572;48.804;8.330;2023-04-24T09:21:00;14.40;69.40
3550;DHT22;45572;48.804;8.330;2023-04-24T09:23:29;14.30;67.50
3550;DHT22;45572;48.804;8.330;2023-04-24T09:25:59;14.00;68.50
3550;DHT22;45572;48.804;8.330;2023-04-24T09:28:32;14.10;68.60
3550;DHT22;45572;48.804;8.330;2023-04-24T09:31:04;13.80;67.70
3550;DHT22;45572;48.804;8.330;2023-04-24T09:33:34;13.50;71.10
3550;DHT22;45572;48.804;8.330;2023-04-24T09:36:04;13.60;72.00
3550;DHT22;45572;48.804;8.330;2023-04-24T09:38:34;13.50;70.80
3550;DHT22;45572;48.804;8.330;2023-04-24T09:41:06;13.40;72.30
3550;DHT22;45572;48.804;8.330;2023-04-24T09:43:35;13.40;70.50
3550;DHT22;45572;48.804;8.330;2023-04-24T09:46:06;13.30;71.50
3550;DHT22;45572;48.804;8.330;2023-04-24T09:48:36;13.30;71.40
3550;DHT22;45572;48.804;8.330;2023-04-24T09:51:08;13.10;71.90
3550;DHT22;45572;48.804;8.330;2023-04-24T09:53:39;12.90;71.90
3550;DHT22;45572;48.804;8.330;2023-04-24T09:56:12;12.90;73.10
3550;DHT22;45572;48.804;8.330;2023-04-24T09:58:39;12.90;72.60
3550;DHT22;45572;48.804;8.330;2023-04-24T10:01:08;12.70;72.80
3550;DHT22;45572;48.804;8.330;2023-04-24T10:03:36;12.60;73.20
3550;DHT22;45572;48.804;8.330;2023-04-24T10:06:04;12.60;74.40
3550;DHT22;45572;48.804;8.330;2023-04-24T10:08:37;12.50;74.80
3550;DHT22;45572;48.804;8.330;2023-04-24T10:11:05;12.40;76.50
3550;DHT22;45572;48.804;8.330;2023-04-24T10:13:33;12.10;75.90
3550;DHT22;45572;48.804;8.330;2023-04-24T10:16:05;12.00;76.50
3550;DHT22;45572;48.804;8.330;2023-04-24T10:18:35;12.10;77.40
3550;DHT22;45572;48.804;8.330;2023-04-24T10:21:05;12.10;76.50
3550;DHT22;45572;48.804;8.330;2023-04-24T10:23:33;12.40;76.30
3550;DHT22;45572;48.804;8.330;2023-04-24T10:26:03;12.50;76.20
3550;DHT22;45572;48.804;8.330;2023-04-24T10:28:32;12.70;75.30
3550;DHT22;45572;48.804;8.330;2023-04-24T10:31:04;12.90;74.40
3550;DHT22;45572;48.804;8.330;2023-04-24T10:33:34;13.00;75.30
3550;DHT22;45572;48.804;8.330;2023-04-24T10:36:02;12.80;73.50
3550;DHT22;45572;48.804;8.330;2023-04-24T10:38:30;12.20;76.00
3550;DHT22;45572;48.804;8.330;2023-04-24T10:41:08;11.90;80.50
3550;DHT22;45572;48.804;8.330;2023-04-24T10:43:42;11.60;81.90
3550;DHT22;45572;48.804;8.330;2023-04-24T10:46:10;11.60;83.30
3550;DHT22;45572;48.804;8.330;2023-04-24T10:48:42;11.70;83.50
3550;DHT22;45572;48.804;8.330;2023-04-24T10:51:12;11.90;81.00
3550;DHT22;45572;48.804;8.330;2023-04-24T10:53:41;12.20;81.40
3550;DHT22;45572;48.804;8.330;2023-04-24T10:56:10;12.40;80.50
3550;DHT22;45572;48.804;8.330;2023-04-24T10:58:40;12.60;78.70
3550;DHT22;45572;48.804;8.330;2023-04-24T11:01:24;12.80;77.80
3550;DHT22;45572;48.804;8.330;2023-04-24T11:03:55;12.60;76.00
3550;DHT22;45572;48.804;8.330;2023-04-24T11:06:31;12.50;75.90
3550;DHT22;45572;48.804;8.330;2023-04-24T11:09:03;12.30;76.80
3550;DHT22;45572;48.804;8.330;2023-04-24T11:11:35;12.30;76.60
3550;DHT22;45572;48.804;8.330;2023-04-24T11:14:05;12.10;75.30
3550;DHT22;45572;48.804;8.330;2023-04-24T11:16:39;11.90;79.00
3550;DHT22;45572;48.804;8.330;2023-04-24T11:19:23;11.70;79.00
3550;DHT22;45572;48.804;8.330;2023-04-24T11:21:58;11.60;79.50
3550;DHT22;45572;48.804;8.330;2023-04-24T11:24:32;11.60;79.20
3550;DHT22;45572;48.804;8.330;2023-04-24T11:27:10;11.60;80.20
3550;DHT22;45572;48.804;8.330;2023-04-24T11:29:45;11.70;79.10
3550;DHT22;45572;48.804;8.330;2023-04-24T11:32:17;11.80;79.20
3550;DHT22;45572;48.804;8.330;2023-04-24T11:34:48;11.90;79.90
3550;DHT22;45572;48.804;8.330;2023-04-24T11:37:17;12.00;79.30
3550;DHT22;45572;48.804;8.330;2023-04-24T11:39:45;12.10;79.10
3550;DHT22;45572;48.804;8.330;2023-04-24T11:42:18;12.10;79.60
3550;DHT22;45572;48.804;8.330;2023-04-24T11:44:49;12.10;80.70
3550;DHT22;45572;48.804;8.330;2023-04-24T11:47:18;12.00;80.80
3550;DHT22;45572;48.804;8.330;2023-04-24T11:49:50;11.80;82.40
3550;DHT22;45572;48.804;8.330;2023-04-24T11:52:20;12.00;82.60
3550;DHT22;45572;48.804;8.330;2023-04-24T11:54:49;12.30;83.50
3550;DHT22;45572;48.804;8.330;2023-04-24T11:57:20;12.70;82.00
3550;DHT22;45572;48.804;8.330;2023-04-24T11:59:49;12.80;80.80
3550;DHT22;45572;48.804;8.330;2023-04-24T12:02:21;12.90;81.00
3550;DHT22;45572;48.804;8.330;2023-04-24T12:04:49;13.00;79.40
3550;DHT22;45572;48.804;8.330;2023-04-24T12:07:21;13.20;78.80
3550;DHT22;45572;48.804;8.330;2023-04-24T12:09:56;13.30;78.60
3550;DHT22;45572;48.804;8.330;2023-04-24T12:12:29;13.30;78.00
3550;DHT22;45572;48.804;8.330;2023-04-24T12:14:58;13.60;78.90
3550;DHT22;45572;48.804;8.330;2023-04-24T12:17:30;13.80;76.60
3550;DHT22;45572;48.804;8.330;2023-04-24T12:20:01;13.80;77.20
3550;DHT22;45572;48.804;8.330;2023-04-24T12:22:49;13.90;76.80
3550;DHT22;45572;48.804;8.330;2023-04-24T12:25:19;14.10;77.10
3550;DHT22;45572;48.804;8.330;2023-04-24T12:27:55;14.40;75.80
3550;DHT22;45572;48.804;8.330;2023-04-24T12:30:28;14.80;72.40
3550;DHT22;45572;48.804;8.330;2023-04-24T12:32:59;14.70;72.20
3550;DHT22;45572;48.804;8.330;2023-04-24T12:35:29;14.90;71.20
3550;DHT22;45572;48.804;8.330;2023-04-24T12:38:06;14.60;71.50
3550;DHT22;45572;48.804;8.330;2023-04-24T12:40:35;14.30;71.40
3550;DHT22;45572;48.804;8.330;2023-04-24T12:43:15;14.40;71.10
3550;DHT22;45572;48.804;8.330;2023-04-24T12:45:44;14.20;71.80
3550;DHT22;45572;48.804;8.330;2023-04-24T12:48:15;14.40;71.70
3550;DHT22;45572;48.804;8.330;2023-04-24T12:50:43;15.00;71.30
3550;DHT22;45572;48.804;8.330;2023-04-24T12:53:14;14.90;70.30
3550;DHT22;45572;48.804;8.330;2023-04-24T12:55:42;15.10;71.70
3550;DHT22;45572;48.804;8.330;2023-04-24T12:58:14;15.20;69.60
3550;DHT22;45572;48.804;8.330;2023-04-24T13:00:45;15.00;70.80
3550;DHT22;45572;48.804;8.330;2023-04-24T13:03:12;14.90;71.30
3550;DHT22;45572;48.804;8.330;2023-04-24T13:05:42;15.10;70.50
3550;DHT22;45572;48.804;8.330;2023-04-24T13:08:10;15.20;70.60
3550;DHT22;45572;48.804;8.330;2023-04-24T13:10:42;15.10;70.30
3550;DHT22;45572;48.804;8.330;2023-04-24T13:13:10;15.10;70.60
3550;DHT22;45572;48.804;8.330;2023-04-24T13:15:39;15.40;69.80
3550;DHT22;45572;48.804;8.330;2023-04-24T13:18:09;15.10;70.00
3550;DHT22;45572;48.804;8.330;2023-04-24T13:20:38;15.30;69.30
3550;DHT22;45572;48.804;8.330;2023-04-24T13:23:08;15.50;68.20
3550;DHT22;45572;48.804;8.330;2023-04-24T13:25:36;15.50;65.90
3550;DHT22;45572;48.804;8.330;2023-04-24T13:28:05;15.10;68.00
3550;DHT22;45572;48.804;8.330;2023-04-24T13:30:33;14.80;68.80
3550;DHT22;45572;48.804;8.330;2023-04-24T13:33:02;14.50;69.30
3550;DHT22;45572;48.804;8.330;2023-04-24T13:35:30;14.30;70.10
3550;DHT22;45572;48.804;8.330;2023-04-24T13:37:58;14.20;71.70
3550;DHT22;45572;48.804;8.330;2023-04-24T13:40:27;14.00;74.00
3550;DHT22;45572;48.804;8.330;2023-04-24T13:42:55;13.70;75.30
3550;DHT22;45572;48.804;8.330;2023-04-24T13:45:24;13.40;79.90
3550;DHT22;45572;48.804;8.330;2023-04-24T13:47:56;13.30;79.60
3550;DHT22;45572;48.804;8.330;2023-04-24T13:50:25;13.10;78.90
3550;DHT22;45572;48.804;8.330;2023-04-24T13:52:54;13.10;80.10
3550;DHT22;45572;48.804;8.330;2023-04-24T13:55:23;13.10;78.50
3550;DHT22;45572;48.804;8.330;2023-04-24T13:57:52;13.10;78.10
3550;DHT22;45572;48.804;8.330;2023-04-24T14:00:21;13.00;77.80
3550;DHT22;45572;48.804;8.330;2023-04-24T14:02:52;13.00;77.60
3550;DHT22;45572;48.804;8.330;2023-04-24T14:05:20;13.00;77.80
3550;DHT22;45572;48.804;8.330;2023-04-24T14:07:50;12.80;78.50
3550;DHT22;45572;48.804;8.330;2023-04-24T14:10:18;12.70;81.60
3550;DHT22;45572;48.804;8.330;2023-04-24T14:12:46;12.50;82.60
3550;DHT22;45572;48.804;8.330;2023-04-24T14:15:13;12.40;85.60
3550;DHT22;45572;48.804;8.330;2023-04-24T14:17:41;12.30;87.80
3550;DHT22;45572;48.804;8.330;2023-04-24T14:20:10;12.10;88.60
3550;DHT22;45572;48.804;8.330;2023-04-24T14:22:38;11.90;87.70
3550;DHT22;45572;48.804;8.330;2023-04-24T14:25:08;11.80;87.50
3550;DHT22;45572;48.804;8.330;2023-04-24T14:27:37;11.80;88.60
3550;DHT22;45572;48.804;8.330;2023-04-24T14:30:08;11.80;89.10
3550;DHT22;45572;48.804;8.330;2023-04-24T14:32:37;11.80;88.80
3550;DHT22;45572;48.804;8.330;2023-04-24T14:35:07;11.90;90.60
3550;DHT22;45572;48.804;8.330;2023-04-24T14:37:38;11.90;88.90
3550;DHT22;45572;48.804;8.330;2023-04-24T14:40:12;12.00;87.60
3550;DHT22;45572;48.804;8.330;2023-04-24T14:43:02;12.00;87.60
3550;DHT22;45572;48.804;8.330;2023-04-24T14:45:29;11.90;87.80
3550;DHT22;45572;48.804;8.330;2023-04-24T14:47:57;11.90;87.90
3550;DHT22;45572;48.804;8.330;2023-04-24T14:50:25;12.00;88.20
3550;DHT22;45572;48.804;8.330;2023-04-24T14:52:54;11.90;87.50
3550;DHT22;45572;48.804;8.330;2023-04-24T14:55:25;12.00;88.70
3550;DHT22;45572;48.804;8.330;2023-04-24T14:57:53;12.10;88.40
3550;DHT22;45572;48.804;8.330;2023-04-24T15:00:22;12.20;88.40
3550;DHT22;45572;48.804;8.330;2023-04-24T15:02:50;12.10;85.90
3550;DHT22;45572;48.804;8.330;2023-04-24T15:05:19;12.20;86.60
3550;DHT22;45572;48.804;8.330;2023-04-24T15:07:47;12.30;86.80
3550;DHT22;45572;48.804;8.330;2023-04-24T15:10:15;12.40;87.10
3550;DHT22;45572;48.804;8.330;2023-04-24T15:12:45;12.40;86.30
3550;DHT22;45572;48.804;8.330;2023-04-24T15:15:13;12.30;86.30
3550;DHT22;45572;48.804;8.330;2023-04-24T15:17:41;12.30;87.00
3550;DHT22;45572;48.804;8.330;2023-04-24T15:20:09;12.50;87.80
3550;DHT22;45572;48.804;8.330;2023-04-24T15:22:37;12.50;86.60
3550;DHT22;45572;48.804;8.330;2023-04-24T15:25:05;12.40;84.70
3550;DHT22;45572;48.804;8.330;2023-04-24T15:27:41;12.50;86.00
3550;DHT22;45572;48.804;8.330;2023-04-24T15:30:11;12.60;84.50
3550;DHT22;45572;48.804;8.330;2023-04-24T15:32:39;12.50;84.70
3550;DHT22;45572;48.804;8.330;2023-04-24T15:35:08;12.40;86.60
3550;DHT22;45572;48.804;8.330;2023-04-24T15:37:36;12.50;86.40
3550;DHT22;45572;48.804;8.330;2023-04-24T15:40:04;12.70;85.20
3550;DHT22;45572;48.804;8.330;2023-04-24T15:42:34;12.90;85.50
3550;DHT22;45572;48.804;8.330;2023-04-24T15:45:02;12.60;83.10
3550;DHT22;45572;48.804;8.330;2023-04-24T15:47:32;12.60;84.10
3550;DHT22;45572;48.804;8.330;2023-04-24T15:50:00;12.60;84.50
3550;DHT22;45572;48.804;8.330;2023-04-24T15:52:29;12.40;84.70
3550;DHT22;45572;48.804;8.330;2023-04-24T15:54:57;12.40;84.90
3550;DHT22;45572;48.804;8.330;2023-04-24T15:57:25;12.50;82.50
3550;DHT22;45572;48.804;8.330;2023-04-24T15:59:52;12.60;80.50
3550;DHT22;45572;48.804;8.330;2023-04-24T16:02:21;12.70;80.00